Time;durP1;ratioP1;P1;durP2;ratioP2;P2;SDS_P1;SDS_P2;PMS_P1;PMS_P2;Temp;Humidity;BMP_temperature;BMP_pressure;BME280_temperature;BME280_humidity;BME280_pressure;Samples;Min_cycle;Max_cycle;Signal;HPM_P1;HPM_P2
2022/07/13 00:01:16;;;;;;;1.80;0.80;;;;;;;14.79;71.85;98835.20;109106;1276;138987;-65
2022/07/13 00:03:42;;;;;;;2.80;0.80;;;;;;;14.78;71.96;98832.85;109359;1276;22249;-65
2022/07/13 00:06:09;;;;;;;3.60;0.90;;;;;;;14.79;71.92;98832.98;109234;1276;22549;-65
2022/07/13 00:08:36;;;;;;;1.00;0.90;;;;;;;14.79;71.82;98828.98;109198;1276;139911;-64
2022/07/13 00:11:03;;;;;;;1.30;1.00;;;;;;;14.78;71.72;98822.59;109127;1276;23546;-66
2022/07/13 00:13:30;;;;;;;1.90;0.80;;;;;;;14.77;71.72;98822.38;109150;1276;138304;-66
2022/07/13 00:15:57;;;;;;;1.40;0.90;;;;;;;14.77;71.78;98819.21;109245;1276;22529;-66
2022/07/13 00:18:24;;;;;;;1.10;0.80;;;;;;;14.76;71.77;98818.07;109170;1275;138345;-65
2022/07/13 00:20:51;;;;;;;1.60;0.80;;;;;;;14.75;71.85;98807.34;109178;1277;22996;-66
2022/07/13 00:23:17;;;;;;;0.80;0.80;;;;;;;14.73;71.82;98804.58;109231;1276;22507;-66
2022/07/13 00:25:44;;;;;;;3.40;0.80;;;;;;;14.72;71.92;98804.98;109152;1277;138070;-66
2022/07/13 00:28:11;;;;;;;2.30;0.90;;;;;;;14.71;71.91;98800.09;109236;1277;22655;-65
2022/07/13 00:30:38;;;;;;;4.00;1.10;;;;;;;14.70;71.98;98796.59;109149;1276;139656;-66
2022/07/13 00:33:05;;;;;;;1.20;0.90;;;;;;;14.69;72.04;98795.96;109177;1276;22239;-66
2022/07/13 00:35:32;;;;;;;2.80;1.40;;;;;;;14.68;72.11;98792.19;109285;1276;22258;-65
2022/07/13 00:37:59;;;;;;;4.60;1.50;;;;;;;14.66;72.06;98785.63;109044;1277;138776;-66
2022/07/13 00:40:26;;;;;;;2.60;0.80;;;;;;;14.66;72.11;98779.34;109348;1276;22490;-65
2022/07/13 00:42:52;;;;;;;2.30;0.90;;;;;;;14.65;72.11;98774.67;109139;1276;138975;-64
2022/07/13 00:45:19;;;;;;;2.90;1.30;;;;;;;14.65;72.17;98769.31;109635;1276;23091;-65
2022/07/13 00:47:47;;;;;;;3.00;0.60;;;;;;;14.64;72.16;98763.52;109045;1277;22610;-64
2022/07/13 00:50:14;;;;;;;1.10;0.90;;;;;;;14.64;72.23;98761.98;105200;1278;139014;-65
2022/07/13 00:52:41;;;;;;;2.80;1.20;;;;;;;14.63;72.24;98763.42;105027;1277;22583;-64
2022/07/13 00:55:09;;;;;;;2.10;0.80;;;;;;;14.63;72.20;98760.35;105104;1277;139159;-64
2022/07/13 00:57:37;;;;;;;1.00;0.90;;;;;;;14.62;72.15;98758.34;105088;1278;26711;-65
2022/07/13 01:00:06;;;;;;;3.10;0.80;;;;;;;14.62;72.26;98756.76;109249;1277;23284;-65
2022/07/13 01:02:35;;;;;;;0.80;0.60;;;;;;;14.61;72.21;98753.70;109218;1277;138811;-65
2022/07/13 01:05:02;;;;;;;1.00;0.70;;;;;;;14.60;72.20;98751.52;109355;1274;22425;-65
2022/07/13 01:07:30;;;;;;;0.90;0.80;;;;;;;14.60;72.20;98749.02;109036;1277;138752;-65
2022/07/13 01:09:57;;;;;;;2.90;1.00;;;;;;;14.59;72.29;98745.23;109270;1277;22480;-65
2022/07/13 01:12:23;;;;;;;6.90;1.00;;;;;;;14.59;72.32;98743.80;109232;1277;138539;-64
2022/07/13 01:14:50;;;;;;;2.50;1.60;;;;;;;14.58;72.34;98742.17;109267;1277;23332;-65
2022/07/13 01:17:17;;;;;;;2.10;0.90;;;;;;;14.56;72.34;98739.98;109111;1276;23380;-65
2022/07/13 01:19:44;;;;;;;5.40;0.90;;;;;;;14.57;72.42;98734.22;109029;1277;138138;-65
2022/07/13 01:22:10;;;;;;;3.50;1.00;;;;;;;14.56;72.45;98733.64;109268;1277;23329;-65
2022/07/13 01:24:37;;;;;;;1.70;0.90;;;;;;;14.56;72.52;98729.64;109020;1277;138252;-64
2022/07/13 01:27:04;;;;;;;2.40;0.90;;;;;;;14.55;72.49;98724.98;105921;1277;22565;-64
2022/07/13 01:29:31;;;;;;;3.30;1.00;;;;;;;14.53;72.38;98726.44;104950;1278;24428;-63
2022/07/13 01:31:59;;;;;;;5.70;1.20;;;;;;;14.52;72.49;98725.42;104874;1278;139423;-63
2022/07/13 01:34:26;;;;;;;1.60;0.90;;;;;;;14.51;72.54;98728.17;109072;1277;22432;-65
2022/07/13 01:36:54;;;;;;;1.60;0.80;;;;;;;14.52;72.66;98722.74;109190;1277;139056;-65
2022/07/13 01:39:21;;;;;;;5.20;1.00;;;;;;;14.48;72.77;98720.72;109124;1277;22480;-65
2022/07/13 01:41:48;;;;;;;2.30;0.90;;;;;;;14.48;72.79;98717.36;109447;1274;23206;-65
2022/07/13 01:44:15;;;;;;;1.90;0.90;;;;;;;14.48;73.09;98723.23;109149;1274;138825;-65
2022/07/13 01:46:42;;;;;;;2.20;0.70;;;;;;;14.48;73.42;98720.71;109450;1274;22435;-66
2022/07/13 01:49:09;;;;;;;1.70;1.00;;;;;;;14.46;73.65;98718.17;109311;1274;138403;-65
2022/07/13 01:51:37;;;;;;;1.10;1.00;;;;;;;14.43;73.90;98722.06;109406;1274;22456;-65
2022/07/13 01:54:04;;;;;;;3.40;1.10;;;;;;;14.39;74.16;98718.63;109401;1274;23462;-65
2022/07/13 01:56:32;;;;;;;3.00;1.20;;;;;;;14.37;74.39;98714.33;109213;1274;138114;-60
2022/07/13 01:58:59;;;;;;;1.30;0.80;;;;;;;14.34;74.60;98711.35;109448;1274;22539;-65
2022/07/13 02:01:26;;;;;;;1.40;1.00;;;;;;;14.31;74.94;98708.83;109185;1273;138095;-65
2022/07/13 02:03:53;;;;;;;2.10;1.60;;;;;;;14.28;75.21;98709.23;109543;1272;22406;-65
2022/07/13 02:06:20;;;;;;;2.60;1.20;;;;;;;14.23;75.47;98709.37;109255;1274;139997;-65
2022/07/13 02:08:47;;;;;;;5.80;1.20;;;;;;;14.20;75.86;98705.32;109348;1274;23136;-65
2022/07/13 02:11:16;;;;;;;7.90;1.10;;;;;;;14.17;76.25;98702.40;109298;1274;22963;-65
2022/07/13 02:13:44;;;;;;;3.00;1.00;;;;;;;14.14;76.57;98702.95;109197;1274;139294;-65
2022/07/13 02:16:15;;;;;;;1.60;1.00;;;;;;;14.11;76.79;98696.83;109342;1274;22446;-65
2022/07/13 02:18:42;;;;;;;2.90;1.10;;;;;;;14.08;76.98;98699.08;109274;1274;139757;-64
2022/07/13 02:21:09;;;;;;;2.60;1.10;;;;;;;14.04;77.31;98694.14;109554;1273;23387;-65
2022/07/13 02:23:36;;;;;;;2.60;1.00;;;;;;;14.01;77.33;98692.29;109465;1274;22441;-65
2022/07/13 02:26:03;;;;;;;1.80;1.10;;;;;;;13.97;77.57;98688.86;107718;1274;138286;-64
2022/07/13 02:28:29;;;;;;;2.10;1.00;;;;;;;13.94;77.72;98685.40;105080;1272;26226;-64
2022/07/13 02:30:56;;;;;;;2.20;1.00;;;;;;;13.92;78.01;98680.55;104945;1274;138639;-64
2022/07/13 02:33:24;;;;;;;2.40;1.30;;;;;;;13.88;78.22;98676.13;109394;1274;22426;-64
2022/07/13 02:35:50;;;;;;;3.50;1.20;;;;;;;13.86;78.43;98680.89;109370;1273;22432;-65
2022/07/13 02:38:17;;;;;;;3.20;1.10;;;;;;;13.82;78.46;98676.75;109332;1274;139239;-65
2022/07/13 02:40:44;;;;;;;4.40;1.10;;;;;;;13.79;78.54;98677.66;109403;1274;23226;-65
2022/07/13 02:43:11;;;;;;;3.10;1.20;;;;;;;13.76;78.63;98671.96;109441;1273;139052;-65
2022/07/13 02:45:40;;;;;;;1.90;1.00;;;;;;;13.77;79.08;98672.93;109316;1274;22462;-65
2022/07/13 02:48:07;;;;;;;3.90;1.40;;;;;;;13.75;79.11;98672.39;105330;1275;24240;-64
2022/07/13 02:50:35;;;;;;;1.70;1.10;;;;;;;13.74;79.08;98671.38;104942;1274;139506;-64
2022/07/13 02:53:01;;;;;;;6.40;1.50;;;;;;;13.73;79.21;98667.13;104976;1275;23066;-64
2022/07/13 02:55:28;;;;;;;1.40;1.10;;;;;;;13.70;79.43;98664.12;105058;1274;138447;-64
2022/07/13 02:57:56;;;;;;;4.00;1.00;;;;;;;13.68;79.55;98665.42;105038;1277;22985;-64
2022/07/13 03:00:23;;;;;;;2.10;1.00;;;;;;;13.66;79.61;98665.95;105026;1274;138505;-64
2022/07/13 03:02:50;;;;;;;5.60;0.90;;;;;;;13.61;79.73;98663.45;105166;1274;24422;-64
2022/07/13 03:05:17;;;;;;;1.00;1.00;;;;;;;13.60;80.01;98659.80;105051;1274;24326;-64
2022/07/13 03:07:44;;;;;;;2.50;0.90;;;;;;;13.57;80.16;98655.23;105019;1275;137882;-64
2022/07/13 03:10:13;;;;;;;1.50;1.10;;;;;;;13.54;80.42;98652.08;105100;1275;25359;-64
2022/07/13 03:12:40;;;;;;;2.40;1.10;;;;;;;13.52;80.51;98649.38;109117;1274;138763;-65
2022/07/13 03:15:08;;;;;;;3.30;1.00;;;;;;;13.50;80.83;98648.48;109352;1274;25052;-65
2022/07/13 03:17:35;;;;;;;1.40;1.00;;;;;;;13.49;80.89;98649.42;109426;1274;22501;-65
2022/07/13 03:20:05;;;;;;;2.10;1.20;;;;;;;13.48;81.12;98649.98;109271;1274;138775;-65
2022/07/13 03:22:32;;;;;;;1.50;1.00;;;;;;;13.47;81.20;98648.23;109412;1271;22733;-65
2022/07/13 03:24:58;;;;;;;1.80;1.50;;;;;;;13.47;81.45;98647.46;109231;1273;139743;-65
2022/07/13 03:27:25;;;;;;;1.30;1.00;;;;;;;13.48;81.41;98649.59;109527;1273;22559;-65
2022/07/13 03:29:52;;;;;;;1.60;1.10;;;;;;;13.48;81.50;98648.21;109374;1274;22419;-65
2022/07/13 03:32:19;;;;;;;2.50;1.30;;;;;;;13.49;81.64;98645.20;109278;1273;139361;-65
2022/07/13 03:34:46;;;;;;;3.60;1.10;;;;;;;13.49;81.78;98642.19;109363;1273;23453;-64
2022/07/13 03:37:14;;;;;;;1.90;0.90;;;;;;;13.51;81.79;98638.33;105595;1274;138951;-64
2022/07/13 03:39:40;;;;;;;2.00;1.00;;;;;;;13.52;81.92;98632.84;105067;1274;25988;-65
2022/07/13 03:42:08;;;;;;;3.80;1.10;;;;;;;13.53;81.88;98632.66;105246;1273;23026;-65
2022/07/13 03:44:34;;;;;;;1.00;0.90;;;;;;;13.54;82.02;98626.95;105650;1273;137549;-64
2022/07/13 03:47:01;;;;;;;1.40;1.10;;;;;;;13.54;82.04;98625.70;105601;1274;24304;-64
2022/07/13 03:49:29;;;;;;;2.40;1.10;;;;;;;13.54;82.19;98624.16;105135;1274;139135;-63
2022/07/13 03:51:55;;;;;;;1.00;0.90;;;;;;;13.54;82.20;98622.36;105196;1273;22563;-64
2022/07/13 03:54:23;;;;;;;1.60;0.90;;;;;;;13.53;82.21;98618.55;105071;1274;138711;-63
2022/07/13 03:56:49;;;;;;;1.00;0.90;;;;;;;13.52;82.25;98621.34;105130;1274;22748;-63
2022/07/13 03:59:16;;;;;;;0.90;0.80;;;;;;;13.52;82.32;98624.46;105149;1273;22569;-64
2022/07/13 04:01:43;;;;;;;1.60;1.10;;;;;;;13.52;82.31;98621.40;105008;1273;138977;-64
2022/07/13 04:04:10;;;;;;;2.00;0.90;;;;;;;13.52;82.41;98623.42;105171;1274;24311;-64
2022/07/13 04:06:38;;;;;;;2.40;1.10;;;;;;;13.51;82.34;98623.55;105039;1274;139865;-64
2022/07/13 04:09:05;;;;;;;2.00;1.10;;;;;;;13.49;82.42;98618.33;105094;1275;22582;-64
2022/07/13 04:11:32;;;;;;;1.00;0.90;;;;;;;13.50;82.59;98618.30;104875;1276;25665;-64
2022/07/13 04:13:59;;;;;;;1.20;1.10;;;;;;;13.51;82.61;98616.77;105035;1274;138177;-64
2022/07/13 04:16:26;;;;;;;1.50;0.80;;;;;;;13.49;82.60;98613.95;105116;1273;24332;-64
2022/07/13 04:18:53;;;;;;;1.50;0.90;;;;;;;13.51;82.61;98612.65;105057;1273;138374;-63
2022/07/13 04:21:20;;;;;;;4.40;1.00;;;;;;;13.52;82.70;98613.63;105160;1273;24234;-64
2022/07/13 04:23:49;;;;;;;1.50;1.00;;;;;;;13.52;82.72;98612.80;105210;1273;24314;-63
2022/07/13 04:26:16;;;;;;;2.70;0.90;;;;;;;13.54;82.86;98610.55;105103;1273;139127;-64
2022/07/13 04:28:43;;;;;;;2.70;0.90;;;;;;;13.53;82.88;98605.95;105170;1273;24231;-64
2022/07/13 04:31:12;;;;;;;1.00;0.90;;;;;;;13.52;82.93;98605.30;104991;1273;138005;-65
2022/07/13 04:33:40;;;;;;;3.20;0.90;;;;;;;13.53;83.19;98600.27;109388;1273;22442;-65
2022/07/13 04:36:08;;;;;;;1.00;0.90;;;;;;;13.54;83.21;98605.94;107543;1273;22568;-65
2022/07/13 04:38:35;;;;;;;3.20;1.00;;;;;;;13.55;83.37;98598.84;105125;1273;138322;-65
2022/07/13 04:41:03;;;;;;;3.30;0.90;;;;;;;13.58;83.41;98599.93;105141;1273;24315;-65
2022/07/13 04:43:30;;;;;;;1.90;1.10;;;;;;;13.60;83.43;98595.14;105055;1273;140337;-65
2022/07/13 04:45:57;;;;;;;1.10;1.00;;;;;;;13.62;83.51;98595.55;105139;1273;22582;-65
2022/07/13 04:48:25;;;;;;;0.90;0.80;;;;;;;13.62;83.39;98593.48;109198;1273;138244;-65
2022/07/13 04:50:52;;;;;;;3.00;0.90;;;;;;;13.66;83.54;98603.32;109445;1273;22416;-66
2022/07/13 04:53:19;;;;;;;1.60;0.90;;;;;;;13.68;83.41;98597.59;109479;1273;22515;-66
2022/07/13 04:55:46;;;;;;;3.60;0.80;;;;;;;13.70;83.55;98595.52;109292;1273;140520;-65
2022/07/13 04:58:13;;;;;;;2.40;1.10;;;;;;;13.72;83.40;98599.84;109294;1273;22507;-66
2022/07/13 05:00:40;;;;;;;1.70;0.90;;;;;;;13.75;83.38;98598.38;109316;1273;138213;-66
2022/07/13 05:03:27;;;;;;;1.90;0.90;;;;;;;13.79;83.37;98594.48;108590;1273;24296;-65
2022/07/13 05:05:54;;;;;;;1.30;0.80;;;;;;;13.82;83.31;98594.16;109350;1273;23402;-66
2022/07/13 05:08:22;;;;;;;3.20;1.00;;;;;;;13.83;83.16;98586.53;109350;1273;139001;-65
2022/07/13 05:10:49;;;;;;;2.70;0.80;;;;;;;13.88;83.22;98594.20;109465;1273;22433;-65
2022/07/13 05:13:16;;;;;;;3.30;0.90;;;;;;;13.91;82.94;98591.35;109215;1273;139401;-65
2022/07/13 05:15:51;;;;;;;2.10;0.80;;;;;;;13.92;82.81;98588.75;109323;1274;22467;-66
2022/07/13 05:18:18;;;;;;;1.50;1.00;;;;;;;13.95;82.77;98590.30;109313;1273;22520;-65
2022/07/13 05:20:45;;;;;;;1.20;0.70;;;;;;;13.95;82.93;98583.19;109326;1273;22458;-66
2022/07/13 05:23:12;;;;;;;2.90;0.90;;;;;;;14.00;82.72;98584.89;109316;1273;22464;-66
2022/07/13 05:25:40;;;;;;;1.90;0.80;;;;;;;14.02;82.72;98583.04;109197;1273;138965;-65
2022/07/13 05:28:07;;;;;;;0.90;0.80;;;;;;;14.05;82.76;98583.86;109421;1273;22493;-66
2022/07/13 05:30:34;;;;;;;2.70;0.80;;;;;;;14.07;82.62;98579.83;109337;1273;138302;-65
2022/07/13 05:33:01;;;;;;;3.80;1.10;;;;;;;14.09;82.46;98581.16;109356;1273;22477;-66
2022/07/13 05:35:28;;;;;;;4.50;0.90;;;;;;;14.10;82.52;98580.26;109228;1274;22434;-66
2022/07/13 05:37:55;;;;;;;1.80;0.90;;;;;;;14.11;82.41;98584.73;109298;1273;138560;-65
2022/07/13 05:40:23;;;;;;;1.40;0.80;;;;;;;14.12;82.33;98582.30;109485;1273;22544;-66
2022/07/13 05:42:49;;;;;;;4.00;0.90;;;;;;;14.12;82.24;98583.13;109207;1273;138590;-66
2022/07/13 05:47:37;;;;;;;0.80;0.80;;;;;;;14.15;82.46;98578.73;101891;1310;545189;-64
2022/07/13 05:50:04;;;;;;;5.30;1.00;;;;;;;14.14;82.49;98580.76;103927;1284;138655;-65
2022/07/13 05:52:31;;;;;;;2.00;0.90;;;;;;;14.14;82.75;98580.16;103797;1289;24166;-64
2022/07/13 05:54:58;;;;;;;1.50;0.90;;;;;;;14.14;83.07;98578.02;103560;1289;139431;-65
2022/07/13 05:57:30;;;;;;;2.40;1.20;;;;;;;14.11;83.28;98577.70;108003;1289;22459;-67
2022/07/13 05:59:57;;;;;;;1.20;1.00;;;;;;;14.11;83.62;98581.12;108104;1287;22464;-65
2022/07/13 06:02:24;;;;;;;1.00;1.00;;;;;;;14.09;83.82;98578.53;107834;1285;326581;-65
2022/07/13 06:04:51;;;;;;;1.20;0.80;;;;;;;14.08;84.21;98579.80;108224;1285;23117;-66
2022/07/13 06:07:17;;;;;;;4.20;1.00;;;;;;;14.05;84.44;98574.31;108137;1286;138464;-65
2022/07/13 06:09:44;;;;;;;0.70;0.70;;;;;;;14.03;84.68;98576.70;108306;1286;23132;-65
2022/07/13 06:12:11;;;;;;;1.20;1.00;;;;;;;14.03;84.82;98570.75;108268;1286;23659;-65
2022/07/13 06:14:38;;;;;;;0.70;0.70;;;;;;;14.02;85.07;98569.38;108246;1285;137630;-65
2022/07/13 06:17:04;;;;;;;2.60;1.20;;;;;;;13.99;85.34;98569.78;108409;1285;23114;-65
2022/07/13 06:19:33;;;;;;;1.30;0.90;;;;;;;14.01;85.47;98568.75;108211;1286;139181;-66
2022/07/13 06:22:00;;;;;;;3.90;1.30;;;;;;;13.99;85.92;98564.59;108318;1285;23226;-66
2022/07/13 06:24:26;;;;;;;0.80;0.80;;;;;;;13.98;86.00;98568.83;108211;1285;139089;-65
2022/07/13 06:26:53;;;;;;;2.00;1.00;;;;;;;13.97;86.13;98566.60;108293;1286;22421;-65
2022/07/13 06:29:20;;;;;;;4.30;1.00;;;;;;;13.98;86.37;98562.71;108420;1285;22483;-65
2022/07/13 06:31:48;;;;;;;1.10;1.00;;;;;;;13.99;86.61;98563.71;108234;1286;138387;-65
2022/07/13 06:34:15;;;;;;;2.70;1.00;;;;;;;14.00;86.74;98561.71;108466;1285;22563;-65
2022/07/13 06:36:42;;;;;;;0.80;0.80;;;;;;;14.04;87.02;98566.63;108094;1286;139585;-65
2022/07/13 06:39:09;;;;;;;1.20;1.10;;;;;;;14.07;87.16;98563.93;108362;1286;22725;-63
2022/07/13 06:41:37;;;;;;;4.00;1.00;;;;;;;14.12;87.31;98566.32;109093;1280;22460;-65
2022/07/13 06:44:04;;;;;;;1.30;0.80;;;;;;;14.15;87.31;98571.11;108963;1280;139769;-66
2022/07/13 06:46:31;;;;;;;4.50;0.90;;;;;;;14.18;87.33;98570.02;108976;1277;23186;-66
2022/07/13 06:48:58;;;;;;;1.00;0.90;;;;;;;14.20;87.20;98574.14;109062;1277;138700;-66
2022/07/13 06:51:24;;;;;;;2.30;1.10;;;;;;;14.20;87.27;98568.11;109261;1277;23628;-66
2022/07/13 06:53:51;;;;;;;1.70;1.00;;;;;;;14.23;87.24;98571.83;109130;1279;22472;-66
2022/07/13 06:56:18;;;;;;;3.90;1.50;;;;;;;14.25;87.17;98571.91;109108;1277;139646;-66
2022/07/13 06:58:45;;;;;;;2.20;0.90;;;;;;;14.27;87.15;98572.20;107279;1279;23020;-65
2022/07/13 07:01:11;;;;;;;1.20;1.00;;;;;;;14.28;87.29;98574.70;104669;1277;138168;-64
2022/07/13 07:03:39;;;;;;;1.70;1.00;;;;;;;14.28;87.26;98571.95;104754;1280;23983;-64
2022/07/13 07:06:05;;;;;;;2.90;1.20;;;;;;;14.28;87.36;98574.16;104740;1277;23711;-62
2022/07/13 07:08:34;;;;;;;2.00;1.60;;;;;;;14.29;87.51;98571.59;104527;1277;138378;-62
2022/07/13 07:11:01;;;;;;;2.70;1.10;;;;;;;14.29;87.66;98571.54;104783;1280;22575;-64
2022/07/13 07:13:27;;;;;;;1.30;1.00;;;;;;;14.32;87.74;98573.66;104722;1277;139277;-63
2022/07/13 07:15:54;;;;;;;1.70;1.10;;;;;;;14.35;87.94;98572.73;104897;1277;22570;-63
2022/07/13 07:18:22;;;;;;;2.20;0.90;;;;;;;14.36;87.97;98574.36;104850;1280;139409;-64
2022/07/13 07:20:49;;;;;;;1.70;0.80;;;;;;;14.37;88.09;98567.93;104837;1280;25550;-63
2022/07/13 07:23:16;;;;;;;3.00;1.40;;;;;;;14.38;88.24;98570.98;104632;1278;25029;-64
2022/07/13 07:25:43;;;;;;;2.10;1.00;;;;;;;14.39;88.30;98568.81;104634;1280;137615;-64
2022/07/13 07:28:10;;;;;;;2.30;1.00;;;;;;;14.40;88.42;98566.15;104633;1280;25493;-64
2022/07/13 07:30:37;;;;;;;1.00;0.90;;;;;;;14.43;88.65;98566.70;104556;1280;139342;-64
2022/07/13 07:33:03;;;;;;;0.80;0.80;;;;;;;14.43;88.68;98563.39;104856;1277;23910;-63
2022/07/13 07:35:30;;;;;;;1.90;1.00;;;;;;;14.45;88.75;98564.06;104880;1277;26277;-63
2022/07/13 07:37:57;;;;;;;1.90;1.00;;;;;;;14.45;88.70;98562.19;104740;1280;138481;-63
2022/07/13 07:40:24;;;;;;;2.50;1.00;;;;;;;14.45;88.73;98557.20;104846;1277;22724;-64
2022/07/13 07:42:51;;;;;;;2.30;1.00;;;;;;;14.45;88.72;98558.61;104529;1280;138376;-65
2022/07/13 07:45:19;;;;;;;1.30;1.00;;;;;;;14.42;88.61;98551.48;104839;1277;23073;-64
2022/07/13 07:47:46;;;;;;;1.10;0.70;;;;;;;14.42;88.67;98554.46;104964;1277;24236;-64
2022/07/13 07:50:13;;;;;;;1.10;0.90;;;;;;;14.42;88.67;98558.12;104831;1278;137623;-64
2022/07/13 07:52:41;;;;;;;2.30;0.90;;;;;;;14.39;88.53;98553.48;104727;1277;22577;-64
2022/07/13 07:55:24;;;;;;;0.90;0.90;;;;;;;14.37;88.70;98557.67;104648;1280;154465;-64
2022/07/13 07:57:51;;;;;;;1.50;1.10;;;;;;;14.38;88.89;98565.05;104800;1277;22849;-64
2022/07/13 08:00:18;;;;;;;1.00;0.90;;;;;;;14.38;88.88;98565.33;104878;1277;24823;-65
2022/07/13 08:02:47;;;;;;;1.10;1.00;;;;;;;14.39;89.02;98570.41;108903;1280;22482;-64
2022/07/13 08:05:14;;;;;;;1.30;0.90;;;;;;;14.41;89.03;98571.35;109226;1277;22487;-64
2022/07/13 08:07:44;;;;;;;1.70;1.00;;;;;;;14.41;89.11;98582.03;108997;1280;137995;-65
2022/07/13 08:10:12;;;;;;;1.20;0.90;;;;;;;14.42;89.22;98583.33;109156;1278;22507;-65
2022/07/13 08:12:54;;;;;;;2.50;1.00;;;;;;;14.44;89.24;98590.94;109020;1277;138016;-65
2022/07/13 08:15:22;;;;;;;0.80;0.70;;;;;;;14.45;89.23;98587.63;109069;1277;22489;-65
2022/07/13 08:17:49;;;;;;;1.80;0.90;;;;;;;14.46;89.28;98588.86;109125;1277;22463;-65
2022/07/13 08:20:16;;;;;;;6.00;2.30;;;;;;;14.47;89.41;98581.54;109085;1277;138649;-65
2022/07/13 08:22:47;;;;;;;1.90;1.00;;;;;;;14.50;89.51;98584.95;109126;1279;23182;-65
2022/07/13 08:25:15;;;;;;;1.40;0.90;;;;;;;14.53;89.67;98584.13;109074;1277;137783;-59
2022/07/13 08:27:42;;;;;;;0.90;0.80;;;;;;;14.58;89.79;98582.77;109056;1280;22474;-64
2022/07/13 08:30:10;;;;;;;0.90;0.90;;;;;;;14.60;89.77;98581.83;109115;1279;22500;-63
2022/07/13 08:32:38;;;;;;;0.80;0.80;;;;;;;14.62;89.86;98585.52;109003;1277;137598;-64
2022/07/13 08:40:41;;;;;;;1.20;0.80;;;;;;;14.66;89.77;98588.64;109106;1277;22432;-64
2022/07/13 08:43:07;;;;;;;1.60;1.10;;;;;;;14.67;89.80;98586.35;109022;1277;138771;-63
2022/07/13 08:45:34;;;;;;;0.90;0.70;;;;;;;14.67;89.79;98588.33;109042;1280;22622;-64
2022/07/13 08:48:01;;;;;;;1.10;0.80;;;;;;;14.68;89.74;98588.14;109122;1277;22657;-64
2022/07/13 08:50:28;;;;;;;0.60;0.60;;;;;;;14.68;89.86;98587.30;109058;1277;138810;-64
2022/07/13 08:52:55;;;;;;;3.10;0.90;;;;;;;14.69;89.91;98591.06;109018;1278;23294;-65
2022/07/13 08:55:22;;;;;;;1.40;0.80;;;;;;;14.72;90.12;98588.04;109038;1277;138408;-64
2022/07/13 08:57:49;;;;;;;1.60;0.70;;;;;;;14.73;90.05;98585.91;109076;1277;23502;-65
2022/07/13 09:00:17;;;;;;;0.70;0.70;;;;;;;14.74;90.05;98583.64;109040;1279;22463;-65
2022/07/13 09:02:43;;;;;;;0.70;0.70;;;;;;;14.77;90.18;98579.23;108977;1280;139538;-65
2022/07/13 09:05:10;;;;;;;0.60;0.60;;;;;;;14.80;90.28;98578.93;108816;1280;22483;-65
2022/07/13 09:07:37;;;;;;;0.70;0.70;;;;;;;14.83;90.32;98576.94;109017;1277;139126;-65
2022/07/13 09:10:04;;;;;;;2.80;0.70;;;;;;;14.88;90.57;98577.80;109125;1277;22607;-65
2022/07/13 09:12:34;;;;;;;1.20;0.70;;;;;;;14.94;90.83;98582.61;108917;1280;138610;-64
2022/07/13 09:15:03;;;;;;;0.50;0.50;;;;;;;15.00;90.84;98580.21;109019;1280;22452;-65
2022/07/13 09:17:31;;;;;;;0.80;0.60;;;;;;;15.06;90.77;98586.60;109105;1279;23372;-65
2022/07/13 09:19:58;;;;;;;0.60;0.60;;;;;;;15.10;90.74;98587.63;109001;1279;138011;-65
2022/07/13 09:22:25;;;;;;;0.70;0.70;;;;;;;15.13;90.58;98581.77;109080;1279;22420;-65
2022/07/13 09:24:53;;;;;;;0.50;0.50;;;;;;;15.16;90.30;98582.67;109030;1277;139857;-64
2022/07/13 09:27:21;;;;;;;0.80;0.50;;;;;;;15.19;90.15;98584.71;109042;1280;22468;-65
2022/07/13 09:29:49;;;;;;;0.80;0.50;;;;;;;15.20;89.92;98581.27;108967;1279;22440;-65
2022/07/13 09:32:15;;;;;;;0.70;0.70;;;;;;;15.21;89.64;98574.88;108976;1277;139510;-65
2022/07/13 09:34:46;;;;;;;0.60;0.60;;;;;;;15.23;89.60;98573.32;108935;1279;22412;-64
2022/07/13 09:37:14;;;;;;;0.70;0.70;;;;;;;15.24;89.47;98569.39;108722;1280;139869;-64
2022/07/13 09:40:02;;;;;;;1.40;0.50;;;;;;;15.25;89.26;98576.35;109019;1277;23258;-65
2022/07/13 09:42:29;;;;;;;;;;;;;;;15.25;89.02;98576.34;108950;1280;139599;-64
2022/07/13 09:47:53;;;;;;;1.10;0.50;;;;;;;15.23;88.70;98563.60;104791;1278;24244;-65
2022/07/13 09:50:24;;;;;;;0.50;0.50;;;;;;;15.23;88.67;98564.60;104813;1277;138020;-65
2022/07/13 09:52:52;;;;;;;0.40;0.40;;;;;;;15.23;88.48;98569.70;104769;1280;25491;-66
2022/07/13 09:55:22;;;;;;;2.50;0.70;;;;;;;15.23;88.46;98580.72;108913;1280;138750;-65
2022/07/13 09:57:52;;;;;;;0.40;0.40;;;;;;;15.24;88.28;98578.30;109102;1280;22405;-66
2022/07/13 10:00:29;;;;;;;0.90;0.60;;;;;;;15.25;88.15;98579.92;108934;1280;139273;-65
2022/07/13 10:02:56;;;;;;;0.60;0.60;;;;;;;15.26;88.12;98585.65;108808;1277;22478;-66
2022/07/13 10:05:23;;;;;;;1.40;0.60;;;;;;;15.28;88.03;98576.34;108999;1279;22589;-65
2022/07/13 10:07:50;;;;;;;2.00;0.50;;;;;;;15.29;87.82;98577.09;108935;1278;138218;-66
2022/07/13 10:10:17;;;;;;;0.50;0.50;;;;;;;15.29;87.66;98572.48;109128;1277;22573;-66
2022/07/13 10:12:44;;;;;;;1.10;0.70;;;;;;;15.32;87.76;98570.50;109035;1277;139374;-66
2022/07/13 10:15:11;;;;;;;0.50;0.50;;;;;;;15.35;87.66;98565.00;109089;1277;22496;-66
2022/07/13 10:17:38;;;;;;;1.00;0.80;;;;;;;15.36;87.54;98565.36;109003;1280;22500;-66
2022/07/13 10:20:11;;;;;;;0.70;0.70;;;;;;;15.37;87.48;98565.83;108936;1277;137986;-64
2022/07/13 10:22:43;;;;;;;0.60;0.60;;;;;;;15.38;87.26;98567.52;109052;1277;22438;-65
2022/07/13 10:25:10;;;;;;;0.50;0.50;;;;;;;15.39;87.26;98567.75;108771;1277;138971;-65
2022/07/13 10:27:37;;;;;;;0.90;0.60;;;;;;;15.41;87.19;98560.90;109076;1280;22460;-65
2022/07/13 10:30:21;;;;;;;3.40;0.70;;;;;;;15.43;87.16;98551.99;108974;1280;22468;-65
2022/07/13 10:32:48;;;;;;;0.60;0.60;;;;;;;15.46;87.09;98545.92;109075;1277;22426;-64
2022/07/13 10:35:17;;;;;;;0.60;0.60;;;;;;;15.48;87.06;98544.13;109171;1277;22631;-62
2022/07/13 10:37:56;;;;;;;1.30;0.70;;;;;;;15.49;86.92;98542.08;108943;1277;138133;-64
2022/07/13 10:40:29;;;;;;;0.80;0.60;;;;;;;15.49;86.78;98551.89;109009;1278;22403;-64
2022/07/13 10:43:04;;;;;;;1.00;0.70;;;;;;;15.50;86.68;98554.77;108972;1277;140075;-64
2022/07/13 10:45:48;;;;;;;0.90;0.80;;;;;;;15.52;86.57;98552.83;108997;1277;22547;-64
2022/07/13 10:48:32;;;;;;;1.00;0.50;;;;;;;15.50;86.33;98548.90;108912;1280;22875;-65
2022/07/13 10:50:59;;;;;;;1.00;0.70;;;;;;;15.52;86.30;98546.39;109049;1278;22459;-65
2022/07/13 10:53:38;;;;;;;0.80;0.70;;;;;;;15.53;86.32;98552.64;109096;1277;23338;-65
2022/07/13 10:56:18;;;;;;;1.90;0.70;;;;;;;15.54;86.44;98552.94;108967;1277;139163;-65
2022/07/13 10:58:46;;;;;;;0.80;0.80;;;;;;;15.55;86.36;98552.83;109234;1277;23520;-65
2022/07/13 11:01:32;;;;;;;1.30;1.10;;;;;;;15.53;86.32;98549.66;109002;1278;138597;-65
2022/07/13 11:03:59;;;;;;;0.50;0.50;;;;;;;15.52;86.40;98551.05;109020;1280;23209;-65
2022/07/13 11:06:29;;;;;;;2.60;1.20;;;;;;;15.52;86.49;98553.24;108841;1281;137987;-64
2022/07/13 11:09:15;;;;;;;1.80;0.80;;;;;;;15.53;86.54;98561.20;109263;1277;22412;-65
2022/07/13 11:11:53;;;;;;;0.70;0.70;;;;;;;15.51;86.58;98560.69;109180;1277;23350;-65
2022/07/13 11:14:35;;;;;;;0.60;0.60;;;;;;;15.50;86.60;98563.08;109002;1277;138763;-64
2022/07/13 11:17:18;;;;;;;5.30;0.80;;;;;;;15.50;86.58;98564.79;109209;1277;22472;-64
2022/07/13 11:19:59;;;;;;;1.30;0.80;;;;;;;15.49;86.65;98566.56;109047;1277;138080;-65
2022/07/13 11:25:15;;;;;;;0.80;0.70;;;;;;;15.46;86.55;98565.31;109025;1277;138057;-64
2022/07/13 11:28:05;;;;;;;2.50;0.90;;;;;;;15.45;86.62;98561.39;109269;1276;22474;-64
2022/07/13 11:30:35;;;;;;;0.90;0.70;;;;;;;15.45;86.73;98559.02;109078;1277;139623;-64
2022/07/13 11:33:01;;;;;;;2.00;0.70;;;;;;;15.45;86.65;98553.98;109113;1277;22519;-64
2022/07/13 11:35:28;;;;;;;4.80;0.80;;;;;;;15.44;86.65;98549.02;109070;1277;22458;-64
2022/07/13 11:37:55;;;;;;;0.70;0.70;;;;;;;15.44;86.64;98549.40;109127;1276;139020;-64
2022/07/13 11:40:29;;;;;;;3.50;0.80;;;;;;;15.47;86.81;98546.80;109085;1277;23233;-64